sensor_id;sensor_type;location;lat;lon;timestamp;pressure;altitude;pressure_sealevel;temperature
85096;BMP280;75436;53.502;10.030;2024-03-17T00:01:19;101880.28;;;4.81
85096;BMP280;75436;53.502;10.030;2024-03-17T00:03:45;101876.53;;;4.72
85096;BMP280;75436;53.502;10.030;2024-03-17T00:06:10;101879.25;;;4.56
85096;BMP280;75436;53.502;10.030;2024-03-17T00:08:36;101888.22;;;4.49
85096;BMP280;75436;53.502;10.030;2024-03-17T00:11:01;101870.72;;;4.39
85096;BMP280;75436;53.502;10.030;2024-03-17T00:13:27;101866.91;;;4.30
85096;BMP280;75436;53.502;10.030;2024-03-17T00:15:52;101842.75;;;4.30
85096;BMP280;75436;53.502;10.030;2024-03-17T00:18:18;101834.22;;;4.34
85096;BMP280;75436;53.502;10.030;2024-03-17T00:20:43;101833.13;;;4.30
85096;BMP280;75436;53.502;10.030;2024-03-17T00:23:09;101828.47;;;4.32
85096;BMP280;75436;53.502;10.030;2024-03-17T00:25:37;101836.28;;;4.32
85096;BMP280;75436;53.502;10.030;2024-03-17T00:28:04;101842.66;;;4.20
85096;BMP280;75436;53.502;10.030;2024-03-17T00:30:29;101838.94;;;4.16
85096;BMP280;75436;53.502;10.030;2024-03-17T00:32:56;101832.66;;;4.12
85096;BMP280;75436;53.502;10.030;2024-03-17T00:35:23;101832.53;;;4.02
85096;BMP280;75436;53.502;10.030;2024-03-17T00:37:50;101826.72;;;3.96
85096;BMP280;75436;53.502;10.030;2024-03-17T00:40:17;101797.97;;;4.07
85096;BMP280;75436;53.502;10.030;2024-03-17T00:42:45;101812.75;;;4.01
85096;BMP280;75436;53.502;10.030;2024-03-17T00:45:11;101811.72;;;4.02
85096;BMP280;75436;53.502;10.030;2024-03-17T00:47:37;101805.97;;;4.00
85096;BMP280;75436;53.502;10.030;2024-03-17T00:50:03;101810.06;;;3.97
85096;BMP280;75436;53.502;10.030;2024-03-17T00:52:31;101802.75;;;3.94
85096;BMP280;75436;53.502;10.030;2024-03-17T00:54:57;101790.09;;;3.97
85096;BMP280;75436;53.502;10.030;2024-03-17T00:57:23;101785.13;;;3.96
85096;BMP280;75436;53.502;10.030;2024-03-17T00:59:49;101800.66;;;3.91
85096;BMP280;75436;53.502;10.030;2024-03-17T01:02:15;101789.16;;;3.87
85096;BMP280;75436;53.502;10.030;2024-03-17T01:04:44;101777.72;;;3.88
85096;BMP280;75436;53.502;10.030;2024-03-17T01:07:10;101773.41;;;3.93
85096;BMP280;75436;53.502;10.030;2024-03-17T01:09:36;101760.47;;;3.98
85096;BMP280;75436;53.502;10.030;2024-03-17T01:12:02;101765.59;;;3.93
85096;BMP280;75436;53.502;10.030;2024-03-17T01:14:29;101765.28;;;3.90
85096;BMP280;75436;53.502;10.030;2024-03-17T01:16:56;101758.09;;;3.97
85096;BMP280;75436;53.502;10.030;2024-03-17T01:19:23;101760.69;;;3.97
85096;BMP280;75436;53.502;10.030;2024-03-17T01:21:49;101757.63;;;3.99
85096;BMP280;75436;53.502;10.030;2024-03-17T01:24:15;101757.16;;;4.02
85096;BMP280;75436;53.502;10.030;2024-03-17T01:26:41;101762.84;;;3.99
85096;BMP280;75436;53.502;10.030;2024-03-17T01:29:07;101774.41;;;3.92
85096;BMP280;75436;53.502;10.030;2024-03-17T01:31:34;101766.31;;;3.89
85096;BMP280;75436;53.502;10.030;2024-03-17T01:33:59;101770.03;;;3.93
85096;BMP280;75436;53.502;10.030;2024-03-17T01:36:25;101765.28;;;3.90
85096;BMP280;75436;53.502;10.030;2024-03-17T01:38:50;101753.00;;;4.01
85096;BMP280;75436;53.502;10.030;2024-03-17T01:41:16;101754.06;;;4.05
85096;BMP280;75436;53.502;10.030;2024-03-17T01:43:41;101753.53;;;4.03
85096;BMP280;75436;53.502;10.030;2024-03-17T01:46:12;101762.84;;;3.99
85096;BMP280;75436;53.502;10.030;2024-03-17T01:48:39;101760.16;;;3.95
85096;BMP280;75436;53.502;10.030;2024-03-17T01:51:07;101760.88;;;3.90
85096;BMP280;75436;53.502;10.030;2024-03-17T01:53:35;101768.59;;;3.85
85096;BMP280;75436;53.502;10.030;2024-03-17T01:56:02;101768.56;;;3.80
85096;BMP280;75436;53.502;10.030;2024-03-17T01:58:30;101770.28;;;3.75
85096;BMP280;75436;53.502;10.030;2024-03-17T02:00:55;101763.22;;;3.70
85096;BMP280;75436;53.502;10.030;2024-03-17T02:03:21;101760.63;;;3.70
85096;BMP280;75436;53.502;10.030;2024-03-17T02:05:47;101749.19;;;3.71
85096;BMP280;75436;53.502;10.030;2024-03-17T02:08:13;101746.59;;;3.71
85096;BMP280;75436;53.502;10.030;2024-03-17T02:10:39;101754.09;;;3.68
85096;BMP280;75436;53.502;10.030;2024-03-17T02:13:05;101743.59;;;3.79
85096;BMP280;75436;53.502;10.030;2024-03-17T02:15:31;101745.97;;;3.81
85096;BMP280;75436;53.502;10.030;2024-03-17T02:17:58;101744.72;;;3.88
85096;BMP280;75436;53.502;10.030;2024-03-17T02:20:24;101739.25;;;3.85
85096;BMP280;75436;53.502;10.030;2024-03-17T02:23:27;101738.94;;;3.81
85096;BMP280;75436;53.502;10.030;2024-03-17T02:25:53;101746.19;;;3.79
85096;BMP280;75436;53.502;10.030;2024-03-17T02:28:19;101744.72;;;3.67
85096;BMP280;75436;53.502;10.030;2024-03-17T02:30:44;101756.88;;;3.62
85096;BMP280;75436;53.502;10.030;2024-03-17T02:33:10;101739.78;;;3.66
85096;BMP280;75436;53.502;10.030;2024-03-17T02:35:35;101737.47;;;3.69
85096;BMP280;75436;53.502;10.030;2024-03-17T02:38:01;101737.63;;;3.79
85096;BMP280;75436;53.502;10.030;2024-03-17T02:40:27;101739.78;;;3.87
85096;BMP280;75436;53.502;10.030;2024-03-17T02:42:53;101740.16;;;3.95
85096;BMP280;75436;53.502;10.030;2024-03-17T02:45:18;101742.78;;;3.95
85096;BMP280;75436;53.502;10.030;2024-03-17T02:47:43;101739.13;;;3.96
85096;BMP280;75436;53.502;10.030;2024-03-17T02:50:10;101738.13;;;3.97
85096;BMP280;75436;53.502;10.030;2024-03-17T02:52:35;101744.56;;;3.95
85096;BMP280;75436;53.502;10.030;2024-03-17T02:55:00;101741.66;;;3.91
85096;BMP280;75436;53.502;10.030;2024-03-17T02:57:26;101735.16;;;3.89
85096;BMP280;75436;53.502;10.030;2024-03-17T02:59:56;101739.19;;;3.80
85096;BMP280;75436;53.502;10.030;2024-03-17T03:02:22;101746.22;;;3.63
85096;BMP280;75436;53.502;10.030;2024-03-17T03:04:47;101756.94;;;3.50
85096;BMP280;75436;53.502;10.030;2024-03-17T03:07:13;101758.38;;;3.41
85096;BMP280;75436;53.502;10.030;2024-03-17T03:09:38;101759.47;;;3.29
85096;BMP280;75436;53.502;10.030;2024-03-17T03:12:04;101762.16;;;3.18
85096;BMP280;75436;53.502;10.030;2024-03-17T03:14:30;101752.72;;;3.12
85096;BMP280;75436;53.502;10.030;2024-03-17T03:16:57;101738.19;;;3.11
85096;BMP280;75436;53.502;10.030;2024-03-17T03:19:23;101740.59;;;3.01
85096;BMP280;75436;53.502;10.030;2024-03-17T03:21:49;101747.19;;;2.92
85096;BMP280;75436;53.502;10.030;2024-03-17T03:24:15;101742.41;;;2.84
85096;BMP280;75436;53.502;10.030;2024-03-17T03:26:41;101727.31;;;2.81
85096;BMP280;75436;53.502;10.030;2024-03-17T03:29:06;101722.34;;;2.80
85096;BMP280;75436;53.502;10.030;2024-03-17T03:31:32;101725.66;;;2.75
85096;BMP280;75436;53.502;10.030;2024-03-17T03:33:58;101724.69;;;2.65
85096;BMP280;75436;53.502;10.030;2024-03-17T03:36:26;101723.16;;;2.53
85096;BMP280;75436;53.502;10.030;2024-03-17T03:38:52;101730.09;;;2.47
85096;BMP280;75436;53.502;10.030;2024-03-17T03:41:28;101735.84;;;2.38
85096;BMP280;75436;53.502;10.030;2024-03-17T03:43:53;101731.00;;;2.30
85096;BMP280;75436;53.502;10.030;2024-03-17T03:46:19;101732.50;;;2.26
85096;BMP280;75436;53.502;10.030;2024-03-17T03:48:45;101724.34;;;2.18
85096;BMP280;75436;53.502;10.030;2024-03-17T03:51:11;101721.88;;;2.11
85096;BMP280;75436;53.502;10.030;2024-03-17T03:53:36;101717.38;;;2.07
85096;BMP280;75436;53.502;10.030;2024-03-17T03:56:03;101719.84;;;2.02
85096;BMP280;75436;53.502;10.030;2024-03-17T03:58:36;101716.81;;;1.94
85096;BMP280;75436;53.502;10.030;2024-03-17T04:01:07;101708.81;;;1.95
85096;BMP280;75436;53.502;10.030;2024-03-17T04:03:34;101707.69;;;1.91
85096;BMP280;75436;53.502;10.030;2024-03-17T04:06:08;101707.34;;;1.88
85096;BMP280;75436;53.502;10.030;2024-03-17T04:08:38;101698.38;;;1.79
85096;BMP280;75436;53.502;10.030;2024-03-17T04:11:07;101713.34;;;1.77
85096;BMP280;75436;53.502;10.030;2024-03-17T04:13:34;101707.41;;;1.76
85096;BMP280;75436;53.502;10.030;2024-03-17T04:16:00;101715.63;;;1.73
85096;BMP280;75436;53.502;10.030;2024-03-17T04:18:28;101706.94;;;1.68
85096;BMP280;75436;53.502;10.030;2024-03-17T04:21:02;101707.63;;;1.64
85096;BMP280;75436;53.502;10.030;2024-03-17T04:23:29;101701.78;;;1.68
85096;BMP280;75436;53.502;10.030;2024-03-17T04:25:57;101693.78;;;1.69
85096;BMP280;75436;53.502;10.030;2024-03-17T04:28:24;101688.13;;;1.84
85096;BMP280;75436;53.502;10.030;2024-03-17T04:30:49;101669.06;;;1.90
85096;BMP280;75436;53.502;10.030;2024-03-17T04:33:15;101665.25;;;1.92
85096;BMP280;75436;53.502;10.030;2024-03-17T04:35:41;101666.69;;;2.00
85096;BMP280;75436;53.502;10.030;2024-03-17T04:38:08;101659.47;;;2.02
85096;BMP280;75436;53.502;10.030;2024-03-17T04:40:35;101655.84;;;2.02
85096;BMP280;75436;53.502;10.030;2024-03-17T04:43:05;101654.38;;;2.06
85096;BMP280;75436;53.502;10.030;2024-03-17T04:45:31;101649.53;;;2.10
85096;BMP280;75436;53.502;10.030;2024-03-17T04:47:56;101644.84;;;2.23
85096;BMP280;75436;53.502;10.030;2024-03-17T04:50:21;101628.59;;;2.28
85096;BMP280;75436;53.502;10.030;2024-03-17T04:52:47;101646.59;;;2.34
85096;BMP280;75436;53.502;10.030;2024-03-17T04:55:12;101634.53;;;2.39
85096;BMP280;75436;53.502;10.030;2024-03-17T04:57:38;101633.84;;;2.44
85096;BMP280;75436;53.502;10.030;2024-03-17T05:00:04;101637.31;;;2.49
85096;BMP280;75436;53.502;10.030;2024-03-17T05:02:32;101635.66;;;2.60
85096;BMP280;75436;53.502;10.030;2024-03-17T05:04:58;101635.91;;;2.74
85096;BMP280;75436;53.502;10.030;2024-03-17T05:07:24;101628.75;;;2.81
85096;BMP280;75436;53.502;10.030;2024-03-17T05:09:49;101629.00;;;2.80
85096;BMP280;75436;53.502;10.030;2024-03-17T05:12:15;101629.31;;;2.83
85096;BMP280;75436;53.502;10.030;2024-03-17T05:14:40;101617.97;;;2.89
85096;BMP280;75436;53.502;10.030;2024-03-17T05:17:06;101627.53;;;2.89
85096;BMP280;75436;53.502;10.030;2024-03-17T05:19:31;101628.34;;;2.89
85096;BMP280;75436;53.502;10.030;2024-03-17T05:21:56;101634.53;;;2.88
85096;BMP280;75436;53.502;10.030;2024-03-17T05:24:22;101626.59;;;2.95
85096;BMP280;75436;53.502;10.030;2024-03-17T05:26:47;101625.91;;;2.99
85096;BMP280;75436;53.502;10.030;2024-03-17T05:29:13;101637.75;;;2.95
85096;BMP280;75436;53.502;10.030;2024-03-17T05:31:38;101633.06;;;2.92
85096;BMP280;75436;53.502;10.030;2024-03-17T05:34:08;101639.34;;;2.96
85096;BMP280;75436;53.502;10.030;2024-03-17T05:36:35;101629.97;;;2.95
85096;BMP280;75436;53.502;10.030;2024-03-17T05:39:01;101636.13;;;2.89
85096;BMP280;75436;53.502;10.030;2024-03-17T05:41:27;101636.91;;;2.90
85096;BMP280;75436;53.502;10.030;2024-03-17T05:43:53;101641.56;;;2.88
85096;BMP280;75436;53.502;10.030;2024-03-17T05:46:22;101642.66;;;2.92
85096;BMP280;75436;53.502;10.030;2024-03-17T05:48:47;101633.13;;;2.97
85096;BMP280;75436;53.502;10.030;2024-03-17T05:51:12;101644.53;;;2.96
85096;BMP280;75436;53.502;10.030;2024-03-17T05:53:39;101633.78;;;3.04
85096;BMP280;75436;53.502;10.030;2024-03-17T05:56:09;101635.91;;;3.07
85096;BMP280;75436;53.502;10.030;2024-03-17T05:58:41;101641.25;;;3.01
85096;BMP280;75436;53.502;10.030;2024-03-17T06:01:07;101638.56;;;2.96
85096;BMP280;75436;53.502;10.030;2024-03-17T06:03:34;101646.50;;;2.89
85096;BMP280;75436;53.502;10.030;2024-03-17T06:06:04;101652.88;;;2.82
85096;BMP280;75436;53.502;10.030;2024-03-17T06:08:30;101657.28;;;2.81
85096;BMP280;75436;53.502;10.030;2024-03-17T06:10:55;101656.75;;;2.79
85096;BMP280;75436;53.502;10.030;2024-03-17T06:13:23;101657.84;;;2.83
85096;BMP280;75436;53.502;10.030;2024-03-17T06:15:49;101659.94;;;2.86
85096;BMP280;75436;53.502;10.030;2024-03-17T06:18:15;101654.38;;;2.94
85096;BMP280;75436;53.502;10.030;2024-03-17T06:20:47;101647.91;;;2.97
85096;BMP280;75436;53.502;10.030;2024-03-17T06:23:15;101649.81;;;3.01
85096;BMP280;75436;53.502;10.030;2024-03-17T06:25:45;101644.78;;;3.11
85096;BMP280;75436;53.502;10.030;2024-03-17T06:28:14;101648.19;;;3.16
85096;BMP280;75436;53.502;10.030;2024-03-17T06:30:42;101643.94;;;3.27
85096;BMP280;75436;53.502;10.030;2024-03-17T06:33:12;101647.97;;;3.34
85096;BMP280;75436;53.502;10.030;2024-03-17T06:35:39;101645.84;;;3.52
85096;BMP280;75436;53.502;10.030;2024-03-17T06:38:05;101649.84;;;3.60
85096;BMP280;75436;53.502;10.030;2024-03-17T06:40:37;101650.19;;;3.68
85096;BMP280;75436;53.502;10.030;2024-03-17T06:43:03;101646.22;;;3.82
85096;BMP280;75436;53.502;10.030;2024-03-17T06:45:29;101643.75;;;3.97
85096;BMP280;75436;53.502;10.030;2024-03-17T06:47:54;101638.13;;;4.04
85096;BMP280;75436;53.502;10.030;2024-03-17T06:50:21;101646.28;;;4.13
85096;BMP280;75436;53.502;10.030;2024-03-17T06:52:46;101659.66;;;4.26
85096;BMP280;75436;53.502;10.030;2024-03-17T06:55:12;101665.88;;;4.25
85096;BMP280;75436;53.502;10.030;2024-03-17T06:57:37;101671.41;;;4.29
85096;BMP280;75436;53.502;10.030;2024-03-17T07:00:03;101685.22;;;4.34
85096;BMP280;75436;53.502;10.030;2024-03-17T07:02:31;101705.28;;;4.38
85096;BMP280;75436;53.502;10.030;2024-03-17T07:04:58;101707.78;;;4.55
85096;BMP280;75436;53.502;10.030;2024-03-17T07:07:26;101737.13;;;4.76
85096;BMP280;75436;53.502;10.030;2024-03-17T07:09:53;101748.41;;;4.87
85096;BMP280;75436;53.502;10.030;2024-03-17T07:12:18;101767.72;;;4.95
85096;BMP280;75436;53.502;10.030;2024-03-17T07:14:44;101800.38;;;5.13
85096;BMP280;75436;53.502;10.030;2024-03-17T07:17:09;101831.53;;;5.29
85096;BMP280;75436;53.502;10.030;2024-03-17T07:19:34;101865.44;;;5.34
85096;BMP280;75436;53.502;10.030;2024-03-17T07:22:01;101896.97;;;5.37
85096;BMP280;75436;53.502;10.030;2024-03-17T07:24:29;101953.88;;;5.50
85096;BMP280;75436;53.502;10.030;2024-03-17T07:26:55;101992.00;;;5.61
85096;BMP280;75436;53.502;10.030;2024-03-17T07:29:21;102053.78;;;5.60
85096;BMP280;75436;53.502;10.030;2024-03-17T07:31:46;102118.75;;;5.67
85096;BMP280;75436;53.502;10.030;2024-03-17T07:34:11;102106.91;;;5.81
85096;BMP280;75436;53.502;10.030;2024-03-17T07:36:37;102128.72;;;5.75
85096;BMP280;75436;53.502;10.030;2024-03-17T07:39:04;102164.34;;;5.90
85096;BMP280;75436;53.502;10.030;2024-03-17T07:41:30;102186.94;;;6.06
85096;BMP280;75436;53.502;10.030;2024-03-17T07:43:55;102186.31;;;6.21
85096;BMP280;75436;53.502;10.030;2024-03-17T07:46:20;102283.19;;;6.29
85096;BMP280;75436;53.502;10.030;2024-03-17T07:48:46;102327.53;;;6.29
85096;BMP280;75436;53.502;10.030;2024-03-17T07:51:14;102332.94;;;6.44
85096;BMP280;75436;53.502;10.030;2024-03-17T07:53:42;102342.38;;;6.50
85096;BMP280;75436;53.502;10.030;2024-03-17T07:56:14;102336.00;;;6.62
85096;BMP280;75436;53.502;10.030;2024-03-17T07:58:44;102348.09;;;6.73
85096;BMP280;75436;53.502;10.030;2024-03-17T08:01:12;102379.66;;;6.92
85096;BMP280;75436;53.502;10.030;2024-03-17T08:03:40;102406.66;;;7.03
85096;BMP280;75436;53.502;10.030;2024-03-17T08:06:07;102409.22;;;6.98
85096;BMP280;75436;53.502;10.030;2024-03-17T08:08:33;102393.75;;;7.22
85096;BMP280;75436;53.502;10.030;2024-03-17T08:11:00;102399.81;;;6.97
85096;BMP280;75436;53.502;10.030;2024-03-17T08:13:28;102391.91;;;7.18
85096;BMP280;75436;53.502;10.030;2024-03-17T08:16:00;102378.28;;;7.16
85096;BMP280;75436;53.502;10.030;2024-03-17T08:18:27;102395.31;;;7.23
85096;BMP280;75436;53.502;10.030;2024-03-17T08:20:53;102405.25;;;7.57
85096;BMP280;75436;53.502;10.030;2024-03-17T08:23:20;102432.00;;;7.64
85096;BMP280;75436;53.502;10.030;2024-03-17T08:25:53;102468.94;;;7.77
85096;BMP280;75436;53.502;10.030;2024-03-17T08:28:23;102482.06;;;7.82
85096;BMP280;75436;53.502;10.030;2024-03-17T08:30:53;102478.44;;;7.83
85096;BMP280;75436;53.502;10.030;2024-03-17T08:33:20;102471.13;;;7.85
85096;BMP280;75436;53.502;10.030;2024-03-17T08:36:04;102486.91;;;8.46
85096;BMP280;75436;53.502;10.030;2024-03-17T08:38:34;102496.25;;;8.93
85096;BMP280;75436;53.502;10.030;2024-03-17T08:41:10;102533.72;;;8.98
85096;BMP280;75436;53.502;10.030;2024-03-17T08:43:37;102537.09;;;8.84
85096;BMP280;75436;53.502;10.030;2024-03-17T08:46:05;102533.69;;;8.83
85096;BMP280;75436;53.502;10.030;2024-03-17T08:48:36;102523.06;;;8.08
85096;BMP280;75436;53.502;10.030;2024-03-17T08:51:03;102528.00;;;9.01
85096;BMP280;75436;53.502;10.030;2024-03-17T08:53:31;102527.09;;;8.76
85096;BMP280;75436;53.502;10.030;2024-03-17T08:55:58;102533.50;;;9.19
85096;BMP280;75436;53.502;10.030;2024-03-17T08:58:24;102530.38;;;9.76
85096;BMP280;75436;53.502;10.030;2024-03-17T09:00:50;102522.75;;;9.99
85096;BMP280;75436;53.502;10.030;2024-03-17T09:03:17;102518.56;;;10.71
85096;BMP280;75436;53.502;10.030;2024-03-17T09:05:47;102526.94;;;11.53
85096;BMP280;75436;53.502;10.030;2024-03-17T09:08:16;102520.78;;;12.14
85096;BMP280;75436;53.502;10.030;2024-03-17T09:10:48;102525.84;;;11.26
85096;BMP280;75436;53.502;10.030;2024-03-17T09:13:19;102524.47;;;11.66
85096;BMP280;75436;53.502;10.030;2024-03-17T09:15:59;102520.53;;;12.10
85096;BMP280;75436;53.502;10.030;2024-03-17T09:18:26;102517.66;;;12.71
85096;BMP280;75436;53.502;10.030;2024-03-17T09:21:06;102521.44;;;13.33
85096;BMP280;75436;53.502;10.030;2024-03-17T09:23:33;102524.06;;;13.02
85096;BMP280;75436;53.502;10.030;2024-03-17T09:26:01;102524.69;;;13.57
85096;BMP280;75436;53.502;10.030;2024-03-17T09:28:28;102516.16;;;13.33
85096;BMP280;75436;53.502;10.030;2024-03-17T09:30:55;102521.38;;;12.88
85096;BMP280;75436;53.502;10.030;2024-03-17T09:33:22;102523.34;;;11.95
85096;BMP280;75436;53.502;10.030;2024-03-17T09:35:59;102518.50;;;12.85
85096;BMP280;75436;53.502;10.030;2024-03-17T09:38:27;102526.25;;;13.57
85096;BMP280;75436;53.502;10.030;2024-03-17T09:40:54;102529.78;;;13.22
85096;BMP280;75436;53.502;10.030;2024-03-17T09:43:26;102526.47;;;13.74
85096;BMP280;75436;53.502;10.030;2024-03-17T09:45:53;102542.88;;;12.77
85096;BMP280;75436;53.502;10.030;2024-03-17T09:48:24;102536.19;;;13.92
85096;BMP280;75436;53.502;10.030;2024-03-17T09:50:56;102538.41;;;13.27
85096;BMP280;75436;53.502;10.030;2024-03-17T09:53:28;102526.13;;;13.36
85096;BMP280;75436;53.502;10.030;2024-03-17T09:55:59;102530.63;;;12.86
85096;BMP280;75436;53.502;10.030;2024-03-17T09:58:28;102526.94;;;12.87
85096;BMP280;75436;53.502;10.030;2024-03-17T10:00:53;102530.97;;;12.98
85096;BMP280;75436;53.502;10.030;2024-03-17T10:03:47;102544.16;;;12.20
85096;BMP280;75436;53.502;10.030;2024-03-17T10:06:18;102545.34;;;13.55
85096;BMP280;75436;53.502;10.030;2024-03-17T10:11:12;102546.25;;;14.03
85096;BMP280;75436;53.502;10.030;2024-03-17T10:13:40;102537.88;;;13.43
85096;BMP280;75436;53.502;10.030;2024-03-17T10:16:06;102540.41;;;12.26
85096;BMP280;75436;53.502;10.030;2024-03-17T10:18:31;102534.69;;;12.42
85096;BMP280;75436;53.502;10.030;2024-03-17T10:20:57;102557.47;;;11.49
85096;BMP280;75436;53.502;10.030;2024-03-17T10:23:24;102546.38;;;12.73
85096;BMP280;75436;53.502;10.030;2024-03-17T10:25:50;102546.66;;;12.30
85096;BMP280;75436;53.502;10.030;2024-03-17T10:28:17;102551.22;;;12.66
85096;BMP280;75436;53.502;10.030;2024-03-17T10:30:59;102550.53;;;12.78
85096;BMP280;75436;53.502;10.030;2024-03-17T10:33:26;102550.53;;;12.78
85096;BMP280;75436;53.502;10.030;2024-03-17T10:36:01;102553.25;;;13.41
85096;BMP280;75436;53.502;10.030;2024-03-17T10:38:28;102546.53;;;12.21
85096;BMP280;75436;53.502;10.030;2024-03-17T10:40:54;102545.31;;;12.32
85096;BMP280;75436;53.502;10.030;2024-03-17T10:43:20;102545.03;;;12.75
85096;BMP280;75436;53.502;10.030;2024-03-17T10:45:53;102539.34;;;13.94
85096;BMP280;75436;53.502;10.030;2024-03-17T10:48:25;102536.34;;;13.56
85096;BMP280;75436;53.502;10.030;2024-03-17T10:50:56;102539.59;;;14.32
85096;BMP280;75436;53.502;10.030;2024-03-17T10:53:24;102533.66;;;14.14
85096;BMP280;75436;53.502;10.030;2024-03-17T10:56:04;102534.63;;;14.17
85096;BMP280;75436;53.502;10.030;2024-03-17T10:58:38;102539.69;;;14.14
85096;BMP280;75436;53.502;10.030;2024-03-17T11:01:14;102527.06;;;14.94
85096;BMP280;75436;53.502;10.030;2024-03-17T11:03:41;102519.13;;;15.92
85096;BMP280;75436;53.502;10.030;2024-03-17T11:06:09;102529.75;;;16.01
85096;BMP280;75436;53.502;10.030;2024-03-17T11:08:36;102522.19;;;15.69
85096;BMP280;75436;53.502;10.030;2024-03-17T11:11:03;102529.97;;;16.29
85096;BMP280;75436;53.502;10.030;2024-03-17T11:13:31;102533.84;;;15.60
85096;BMP280;75436;53.502;10.030;2024-03-17T11:15:58;102526.34;;;15.02
85096;BMP280;75436;53.502;10.030;2024-03-17T11:23:41;102537.66;;;14.59
85096;BMP280;75436;53.502;10.030;2024-03-17T11:26:07;102535.31;;;15.44
85096;BMP280;75436;53.502;10.030;2024-03-17T11:37:00;102536.88;;;13.26
85096;BMP280;75436;53.502;10.030;2024-03-17T11:39:51;102533.47;;;13.39
85096;BMP280;75436;53.502;10.030;2024-03-17T11:42:22;102526.81;;;14.13
85096;BMP280;75436;53.502;10.030;2024-03-17T11:45:04;102524.59;;;13.61
85096;BMP280;75436;53.502;10.030;2024-03-17T11:47:37;102511.25;;;14.81
85096;BMP280;75436;53.502;10.030;2024-03-17T11:50:05;102503.97;;;14.16
85096;BMP280;75436;53.502;10.030;2024-03-17T11:52:34;102510.66;;;13.61
85096;BMP280;75436;53.502;10.030;2024-03-17T11:55:00;102503.72;;;13.20
85096;BMP280;75436;53.502;10.030;2024-03-17T11:57:26;102494.13;;;13.82
85096;BMP280;75436;53.502;10.030;2024-03-17T11:59:54;102487.06;;;14.04
85096;BMP280;75436;53.502;10.030;2024-03-17T12:02:25;102488.75;;;14.35
85096;BMP280;75436;53.502;10.030;2024-03-17T12:05:04;102491.28;;;13.92
85096;BMP280;75436;53.502;10.030;2024-03-17T12:07:30;102500.38;;;13.99
85096;BMP280;75436;53.502;10.030;2024-03-17T12:09:56;102497.94;;;14.51
85096;BMP280;75436;53.502;10.030;2024-03-17T12:12:24;102496.63;;;15.35
85096;BMP280;75436;53.502;10.030;2024-03-17T12:14:56;102492.16;;;15.90
85096;BMP280;75436;53.502;10.030;2024-03-17T12:17:23;102505.72;;;15.51
85096;BMP280;75436;53.502;10.030;2024-03-17T12:19:50;102498.34;;;14.88
85096;BMP280;75436;53.502;10.030;2024-03-17T12:24:48;102503.72;;;15.18
85096;BMP280;75436;53.502;10.030;2024-03-17T12:27:19;102502.16;;;15.55
85096;BMP280;75436;53.502;10.030;2024-03-17T12:29:53;102493.63;;;16.21
85096;BMP280;75436;53.502;10.030;2024-03-17T12:32:23;102481.69;;;14.44
85096;BMP280;75436;53.502;10.030;2024-03-17T12:34:51;102487.38;;;13.89
85096;BMP280;75436;53.502;10.030;2024-03-17T12:37:19;102488.41;;;15.45
85096;BMP280;75436;53.502;10.030;2024-03-17T12:39:46;102483.47;;;16.23
85096;BMP280;75436;53.502;10.030;2024-03-17T12:42:12;102483.78;;;16.55
85096;BMP280;75436;53.502;10.030;2024-03-17T12:44:49;102486.03;;;16.82
85096;BMP280;75436;53.502;10.030;2024-03-17T12:47:33;102483.06;;;16.91
85096;BMP280;75436;53.502;10.030;2024-03-17T12:50:01;102468.78;;;16.76
85096;BMP280;75436;53.502;10.030;2024-03-17T12:52:32;102470.00;;;17.23
85096;BMP280;75436;53.502;10.030;2024-03-17T12:55:02;102467.91;;;15.67
85096;BMP280;75436;53.502;10.030;2024-03-17T12:57:50;102464.59;;;16.41
85096;BMP280;75436;53.502;10.030;2024-03-17T13:01:02;102457.88;;;15.94
85096;BMP280;75436;53.502;10.030;2024-03-17T13:03:33;102456.78;;;16.28
85096;BMP280;75436;53.502;10.030;2024-03-17T13:06:00;102459.41;;;16.03
85096;BMP280;75436;53.502;10.030;2024-03-17T13:08:31;102461.78;;;16.38
85096;BMP280;75436;53.502;10.030;2024-03-17T13:11:00;102447.16;;;15.52
85096;BMP280;75436;53.502;10.030;2024-03-17T13:13:29;102450.97;;;15.84
85096;BMP280;75436;53.502;10.030;2024-03-17T13:15:54;102450.06;;;16.56
85096;BMP280;75436;53.502;10.030;2024-03-17T13:18:20;102445.66;;;15.84
85096;BMP280;75436;53.502;10.030;2024-03-17T13:20:48;102440.56;;;17.65
85096;BMP280;75436;53.502;10.030;2024-03-17T13:23:19;102434.25;;;16.84
85096;BMP280;75436;53.502;10.030;2024-03-17T13:25:46;102438.84;;;16.42
85096;BMP280;75436;53.502;10.030;2024-03-17T13:28:13;102435.41;;;17.03
85096;BMP280;75436;53.502;10.030;2024-03-17T13:30:39;102446.66;;;17.00
85096;BMP280;75436;53.502;10.030;2024-03-17T13:33:05;102432.25;;;18.39
85096;BMP280;75436;53.502;10.030;2024-03-17T13:35:35;102444.72;;;16.81
85096;BMP280;75436;53.502;10.030;2024-03-17T13:38:08;102440.84;;;16.70
85096;BMP280;75436;53.502;10.030;2024-03-17T13:40:36;102442.97;;;15.59
85096;BMP280;75436;53.502;10.030;2024-03-17T13:43:03;102434.91;;;16.48
85096;BMP280;75436;53.502;10.030;2024-03-17T13:45:39;102437.72;;;16.43
85096;BMP280;75436;53.502;10.030;2024-03-17T13:48:06;102426.94;;;16.64
85096;BMP280;75436;53.502;10.030;2024-03-17T13:50:39;102446.88;;;15.62
85096;BMP280;75436;53.502;10.030;2024-03-17T13:53:07;102446.19;;;16.36
85096;BMP280;75436;53.502;10.030;2024-03-17T13:55:33;102440.25;;;16.14
85096;BMP280;75436;53.502;10.030;2024-03-17T13:57:58;102416.88;;;16.00
85096;BMP280;75436;53.502;10.030;2024-03-17T14:00:25;102423.19;;;14.59
85096;BMP280;75436;53.502;10.030;2024-03-17T14:02:54;102423.00;;;15.15
85096;BMP280;75436;53.502;10.030;2024-03-17T14:05:22;102423.41;;;15.30
85096;BMP280;75436;53.502;10.030;2024-03-17T14:07:51;102415.00;;;15.28
85096;BMP280;75436;53.502;10.030;2024-03-17T14:10:19;102404.72;;;14.45
85096;BMP280;75436;53.502;10.030;2024-03-17T14:12:45;102413.88;;;13.91
85096;BMP280;75436;53.502;10.030;2024-03-17T14:15:13;102403.06;;;14.14